Time;durP1;ratioP1;P1;durP2;ratioP2;P2;SDS_P1;SDS_P2;PMS_P1;PMS_P2;Temp;Humidity;BMP_temperature;BMP_pressure;BME280_temperature;BME280_humidity;BME280_pressure;Samples;Min_cycle;Max_cycle;Signal;HPM_P1;HPM_P2
2020/12/30 00:03:09;;;;;;;64.83;26.03;;;;;;;4.56;80.75;97292.23;249728;1151;22968;-78
2020/12/30 00:08:12;;;;;;;56.40;21.57;;;;;;;4.68;80.49;97285.71;249715;1151;22960;-78
2020/12/30 00:13:14;;;;;;;49.73;18.87;;;;;;;4.80;80.59;97281.55;249305;1151;22967;-77
2020/12/30 00:18:17;;;;;;;30.47;13.13;;;;;;;4.88;80.07;97285.44;249378;1151;23109;-77
2020/12/30 00:23:19;;;;;;;26.53;11.27;;;;;;;4.93;80.63;97289.88;249492;1150;26027;-77
2020/12/30 00:28:22;;;;;;;23.43;10.37;;;;;;;4.94;80.16;97292.23;249692;1150;23036;-78
2020/12/30 00:33:24;;;;;;;20.97;8.80;;;;;;;4.96;80.39;97290.07;249426;1151;23966;-77
2020/12/30 00:38:27;;;;;;;20.13;8.97;;;;;;;5.00;80.62;97300.91;249457;1151;23107;-78
2020/12/30 00:43:29;;;;;;;23.87;9.93;;;;;;;5.01;80.39;97297.19;249071;1158;23001;-77
2020/12/30 00:48:31;;;;;;;21.00;9.33;;;;;;;5.04;80.59;97306.45;249266;1153;22960;-78
2020/12/30 00:53:33;;;;;;;20.03;7.73;;;;;;;5.08;80.21;97302.14;249450;1156;23116;-78
2020/12/30 00:58:37;;;;;;;16.77;7.57;;;;;;;5.12;80.34;97308.42;249430;1151;22942;-77
2020/12/30 01:03:43;;;;;;;15.40;7.07;;;;;;;5.16;80.01;97306.77;249505;1156;22975;-76
2020/12/30 01:08:45;;;;;;;17.07;7.20;;;;;;;5.18;80.38;97293.23;249449;1151;22973;-77
2020/12/30 01:13:47;;;;;;;13.43;5.73;;;;;;;5.15;80.14;97283.98;249478;1156;22959;-79
2020/12/30 01:18:50;;;;;;;14.90;5.80;;;;;;;5.08;79.31;97292.30;249638;1153;22946;-78
2020/12/30 01:23:52;;;;;;;17.47;6.67;;;;;;;5.07;79.87;97295.25;249629;1155;22946;-78
2020/12/30 01:28:54;;;;;;;15.37;6.90;;;;;;;5.08;80.04;97302.92;249560;1151;22934;-75
2020/12/30 01:33:56;;;;;;;11.93;5.77;;;;;;;5.07;80.14;97305.86;249835;1151;23380;-79
2020/12/30 01:38:58;;;;;;;9.97;5.50;;;;;;;5.04;80.21;97307.22;249516;1151;22970;-78
2020/12/30 01:44:06;;;;;;;11.80;4.27;;;;;;;4.99;79.88;97303.86;249636;1151;26421;-77
2020/12/30 01:49:22;;;;;;;9.87;4.20;;;;;;;4.99;80.23;97306.52;249674;1151;23037;-76
2020/12/30 01:54:27;;;;;;;9.03;3.97;;;;;;;5.04;80.60;97306.45;249608;1151;22949;-79
2020/12/30 01:59:30;;;;;;;8.15;3.60;;;;;;;5.05;80.42;97318.62;249021;1151;22973;-77
2020/12/30 02:04:44;;;;;;;6.03;2.87;;;;;;;5.05;80.44;97316.77;249251;1151;22934;-76
2020/12/30 02:09:46;;;;;;;6.35;2.90;;;;;;;5.03;80.52;97310.17;249677;1151;26781;-77
2020/12/30 02:14:48;;;;;;;6.15;2.80;;;;;;;5.05;80.87;97306.16;249776;1150;22986;-77
2020/12/30 02:19:50;;;;;;;6.10;3.23;;;;;;;5.08;80.81;97304.80;249258;1151;23045;-77
2020/12/30 02:24:52;;;;;;;8.90;3.75;;;;;;;5.08;80.93;97302.92;249469;1150;22998;-77
2020/12/30 02:29:55;;;;;;;7.83;3.70;;;;;;;5.08;80.83;97302.92;249538;1151;22945;-76
2020/12/30 02:34:57;;;;;;;8.70;4.63;;;;;;;5.05;80.74;97305.34;249698;1156;22968;-79
2020/12/30 02:39:59;;;;;;;8.53;4.50;;;;;;;5.06;80.86;97301.63;249944;1151;22970;-76
2020/12/30 02:45:05;;;;;;;7.67;4.00;;;;;;;5.06;81.05;97293.66;249265;1154;22952;-77
2020/12/30 02:50:08;;;;;;;8.80;4.57;;;;;;;5.05;80.67;97289.42;249531;1154;22942;-78
2020/12/30 02:55:11;;;;;;;13.17;5.00;;;;;;;5.02;80.67;97288.13;249514;1151;26621;-77
2020/12/30 03:00:13;;;;;;;9.10;4.47;;;;;;;5.00;80.73;97290.30;249519;1156;23028;-77
2020/12/30 03:05:16;;;;;;;10.43;5.03;;;;;;;4.99;81.11;97286.06;249277;1151;26514;-78
2020/12/30 03:10:18;;;;;;;7.43;3.80;;;;;;;5.00;80.97;97289.52;249434;1151;23138;-79
2020/12/30 03:15:20;;;;;;;9.60;3.90;;;;;;;4.97;81.17;97290.88;249395;1151;22956;-77
2020/12/30 03:20:22;;;;;;;7.77;4.00;;;;;;;4.94;81.03;97289.58;249560;1151;22942;-78
2020/12/30 03:25:25;;;;;;;6.33;3.57;;;;;;;4.95;81.17;97287.70;249909;1156;22940;-77
2020/12/30 03:30:27;;;;;;;8.35;4.05;;;;;;;4.96;81.42;97278.67;249829;1150;22942;-78
2020/12/30 03:35:29;;;;;;;7.33;3.90;;;;;;;5.03;81.78;97288.94;249580;1153;22949;-78
2020/12/30 03:40:31;;;;;;;7.17;3.67;;;;;;;5.07;82.13;97295.25;249442;1151;22953;-77
2020/12/30 03:45:33;;;;;;;8.07;4.53;;;;;;;5.06;81.79;97293.66;249075;1151;23190;-79
2020/12/30 03:50:35;;;;;;;8.87;4.97;;;;;;;5.07;81.81;97300.55;249870;1151;22962;-79
2020/12/30 03:55:37;;;;;;;20.90;10.70;;;;;;;5.06;81.66;97293.66;249661;1156;22998;-78
2020/12/30 04:00:39;;;;;;;9.03;4.33;;;;;;;4.94;81.20;97294.11;249596;1151;22953;-78
2020/12/30 04:05:41;;;;;;;8.50;3.60;;;;;;;4.83;81.19;97290.00;249544;1156;23106;-77
2020/12/30 04:10:44;;;;;;;7.40;2.93;;;;;;;4.76;81.21;97290.38;249735;1151;22963;-77
2020/12/30 04:15:47;;;;;;;6.07;3.83;;;;;;;4.69;81.66;97295.25;249239;1151;22939;-78
2020/12/30 04:20:49;;;;;;;5.70;3.37;;;;;;;4.64;81.66;97285.48;249572;1150;26079;-78
2020/12/30 04:25:51;;;;;;;7.13;4.03;;;;;;;4.66;82.04;97287.84;249479;1156;23083;-77
2020/12/30 04:30:53;;;;;;;7.77;3.30;;;;;;;4.73;82.24;97275.02;249182;1151;22986;-80
2020/12/30 04:35:55;;;;;;;6.57;4.13;;;;;;;4.80;82.42;97272.81;249024;1159;23189;-78
2020/12/30 04:40:59;;;;;;;6.37;4.10;;;;;;;4.87;82.18;97272.43;249474;1151;23319;-78
2020/12/30 04:46:03;;;;;;;7.97;5.03;;;;;;;4.87;82.09;97275.08;249555;1151;27206;-77
2020/12/30 04:51:06;;;;;;;19.20;10.17;;;;;;;4.80;81.94;97284.20;249644;1151;26159;-76
2020/12/30 04:56:12;;;;;;;23.25;13.00;;;;;;;4.68;82.00;97297.10;249505;1151;22901;-78
2020/12/30 05:01:18;;;;;;;19.70;11.13;;;;;;;4.60;82.14;97301.19;249848;1151;22971;-76
2020/12/30 05:06:21;;;;;;;21.80;11.85;;;;;;;4.52;82.34;97306.32;249667;1151;22975;-77
2020/12/30 05:11:25;;;;;;;20.97;11.43;;;;;;;4.50;82.50;97303.17;249553;1153;22955;-78
2020/12/30 05:16:28;;;;;;;20.30;12.40;;;;;;;4.48;82.42;97303.47;249351;1155;22947;-76
2020/12/30 05:21:31;;;;;;;21.93;12.30;;;;;;;4.49;82.82;97302.40;249545;1151;22996;-76
2020/12/30 05:26:34;;;;;;;23.63;12.47;;;;;;;4.47;82.69;97315.14;249529;1151;23102;-76
2020/12/30 05:31:39;;;;;;;19.83;9.10;;;;;;;4.47;83.07;97309.83;249173;1151;22950;-78
2020/12/30 05:36:42;;;;;;;21.90;12.07;;;;;;;4.42;83.08;97310.70;249235;1151;27040;-77
2020/12/30 05:41:44;;;;;;;24.95;12.70;;;;;;;4.40;83.28;97312.05;249768;1151;22961;-78
2020/12/30 05:46:47;;;;;;;25.33;13.87;;;;;;;4.40;83.30;97309.39;249560;1156;22951;-78
2020/12/30 05:51:49;;;;;;;31.77;16.87;;;;;;;4.45;83.58;97306.69;249810;1151;22947;-77
2020/12/30 05:56:52;;;;;;;22.15;12.40;;;;;;;4.43;83.21;97306.95;249591;1153;23500;-76
2020/12/30 06:01:56;;;;;;;30.50;16.03;;;;;;;4.40;83.39;97302.22;249744;1156;23062;-78
2020/12/30 06:07:00;;;;;;;28.93;16.43;;;;;;;4.43;83.47;97308.82;249519;1151;26418;-77
2020/12/30 06:12:02;;;;;;;21.10;12.77;;;;;;;4.43;83.74;97298.22;249835;1150;22963;-78
2020/12/30 06:17:05;;;;;;;25.53;15.27;;;;;;;4.42;83.48;97315.19;249449;1156;22976;-76
2020/12/30 06:22:16;;;;;;;24.33;14.67;;;;;;;4.45;83.39;97319.95;249531;1151;22945;-77
2020/12/30 06:27:23;;;;;;;24.35;14.10;;;;;;;4.45;83.39;97320.73;249869;1151;22946;-79
2020/12/30 06:32:32;;;;;;;27.50;16.80;;;;;;;4.49;83.45;97328.11;250073;1151;23000;-78
2020/12/30 06:37:35;;;;;;;29.23;17.63;;;;;;;4.51;83.68;97332.06;249832;1152;22959;-78
2020/12/30 06:42:42;;;;;;;32.60;18.97;;;;;;;4.54;83.70;97328.84;249817;1150;24680;-76
2020/12/30 06:48:00;;;;;;;41.33;22.70;;;;;;;4.60;84.21;97338.33;249007;1151;22984;-77
2020/12/30 06:53:34;;;;;;;43.05;24.30;;;;;;;4.66;84.51;97340.89;249425;1150;22911;-77
2020/12/30 06:58:46;;;;;;;36.07;20.83;;;;;;;4.74;84.22;97345.57;249901;1150;22932;-77
2020/12/30 07:03:49;;;;;;;33.15;19.60;;;;;;;4.73;83.63;97350.09;250036;1150;22983;-76
2020/12/30 07:08:53;;;;;;;28.40;16.17;;;;;;;4.68;84.08;97347.50;249656;1151;22980;-77
2020/12/30 07:13:55;;;;;;;46.77;25.90;;;;;;;4.58;83.52;97348.41;250670;1150;22942;-81
2020/12/30 07:18:57;;;;;;;35.03;20.60;;;;;;;4.48;83.76;97348.55;250614;1150;26514;-78
2020/12/30 07:24:00;;;;;;;30.93;18.67;;;;;;;4.43;84.33;97359.20;250478;1150;22958;-79
2020/12/30 07:29:03;;;;;;;27.97;16.47;;;;;;;4.43;84.50;97357.33;250194;1150;22917;-80
2020/12/30 07:34:17;;;;;;;27.50;16.70;;;;;;;4.43;84.10;97361.85;250438;1151;22952;-77
2020/12/30 07:39:29;;;;;;;32.85;19.90;;;;;;;4.49;84.99;97362.58;250334;1151;23014;-78
2020/12/30 07:44:31;;;;;;;37.27;20.20;;;;;;;4.47;84.72;97354.91;249773;1150;22966;-79
2020/12/30 07:49:33;;;;;;;25.20;14.27;;;;;;;4.49;84.85;97352.78;249978;1150;22954;-79
2020/12/30 07:54:36;;;;;;;37.17;21.83;;;;;;;4.50;84.90;97364.95;250630;1150;23502;-78
2020/12/30 07:59:41;;;;;;;31.77;19.17;;;;;;;4.55;85.14;97356.16;250074;1150;23363;-76
2020/12/30 08:04:45;;;;;;;33.97;20.13;;;;;;;4.58;85.33;97352.94;251093;1150;25941;-78
2020/12/30 08:09:49;;;;;;;32.85;19.90;;;;;;;4.65;85.20;97360.56;251046;1151;22977;-78
2020/12/30 08:14:53;;;;;;;31.00;18.83;;;;;;;4.63;84.90;97358.97;251587;1149;22948;-77
2020/12/30 08:19:55;;;;;;;35.17;20.97;;;;;;;4.61;85.32;97363.75;250375;1150;23061;-78
2020/12/30 08:24:58;;;;;;;34.03;21.60;;;;;;;4.67;85.53;97367.13;250448;1150;23237;-79
2020/12/30 08:30:02;;;;;;;36.50;21.37;;;;;;;4.76;85.95;97375.27;250822;1151;22930;-80
2020/12/30 08:35:14;;;;;;;35.27;21.03;;;;;;;4.85;85.72;97383.39;251946;1150;22959;-82
2020/12/30 08:40:30;;;;;;;32.40;20.20;;;;;;;4.95;86.20;97386.70;251893;1151;22929;-78
2020/12/30 08:45:34;;;;;;;34.80;20.90;;;;;;;4.99;85.73;97384.25;251407;1150;22941;-78
2020/12/30 08:50:37;;;;;;;28.37;18.40;;;;;;;5.03;85.69;97379.17;250821;1151;22937;-78
2020/12/30 08:55:41;;;;;;;36.13;20.37;;;;;;;5.08;85.88;97387.08;251109;1151;22946;-77
2020/12/30 09:00:43;;;;;;;41.60;24.93;;;;;;;5.10;85.71;97390.22;252035;1151;23448;-80
2020/12/30 09:05:54;;;;;;;54.63;30.27;;;;;;;5.21;86.29;97391.66;251266;1150;23059;-79
2020/12/30 09:10:58;;;;;;;61.03;33.27;;;;;;;5.32;86.51;97384.34;252014;1151;22962;-79
2020/12/30 09:16:04;;;;;;;97.05;46.40;;;;;;;5.39;85.88;97383.99;252302;1150;24351;-79
2020/12/30 09:21:25;;;;;;;104.30;44.50;;;;;;;5.37;86.03;97383.48;251949;1151;22997;-79
2020/12/30 09:26:29;;;;;;;64.60;34.43;;;;;;;5.30;85.80;97384.64;252027;1150;23261;-79
2020/12/30 09:31:31;;;;;;;47.93;28.40;;;;;;;5.28;85.62;97394.74;251483;1151;22921;-78
2020/12/30 09:36:33;;;;;;;43.57;26.23;;;;;;;5.18;85.42;97386.94;251054;1150;22960;-78
2020/12/30 09:41:36;;;;;;;42.03;25.90;;;;;;;5.14;85.61;97391.23;249989;1151;23939;-77
2020/12/30 09:46:50;;;;;;;48.10;28.53;;;;;;;5.12;85.47;97398.67;250533;1150;22923;-75
2020/12/30 09:51:57;;;;;;;50.55;31.85;;;;;;;5.18;86.20;97396.77;250444;1151;23397;-77
2020/12/30 09:56:59;;;;;;;59.10;36.07;;;;;;;5.26;86.40;97390.80;250759;1150;23249;-78
2020/12/30 10:02:01;;;;;;;55.87;34.00;;;;;;;5.31;86.57;97394.16;250352;1151;22970;-78
2020/12/30 10:07:03;;;;;;;57.87;37.73;;;;;;;5.41;87.03;97381.83;250343;1151;23103;-78
2020/12/30 10:12:06;;;;;;;59.13;37.07;;;;;;;5.43;86.69;97385.78;250525;1151;23106;-79
2020/12/30 10:17:09;;;;;;;60.73;37.27;;;;;;;5.48;86.74;97383.05;250524;1151;23011;-79
2020/12/30 10:22:12;;;;;;;62.90;37.90;;;;;;;5.50;86.19;97382.77;251087;1151;22995;-79
2020/12/30 10:27:15;;;;;;;65.77;39.60;;;;;;;5.53;86.26;97384.84;250932;1151;23068;-80
2020/12/30 10:32:19;;;;;;;66.50;40.70;;;;;;;5.58;86.67;97384.77;251751;1150;22926;-78
2020/12/30 10:37:25;;;;;;;74.77;43.93;;;;;;;5.66;86.89;97385.96;252498;1150;25993;-77
2020/12/30 10:42:28;;;;;;;68.90;42.07;;;;;;;5.71;87.37;97377.92;251631;1150;23250;-80
2020/12/30 10:47:30;;;;;;;68.83;40.17;;;;;;;5.77;86.90;97370.66;251954;1151;22952;-81
2020/12/30 10:52:34;;;;;;;67.10;41.50;;;;;;;5.79;86.76;97368.48;254294;1150;22837;-85
2020/12/30 10:57:59;;;;;;;66.93;40.77;;;;;;;5.85;87.07;97369.19;253049;1151;22896;-79
2020/12/30 11:03:11;;;;;;;72.53;41.63;;;;;;;5.85;86.68;97364.67;252406;1150;23003;-80
2020/12/30 11:08:17;;;;;;;62.93;38.93;;;;;;;5.79;86.16;97374.60;252181;1150;22971;-80
2020/12/30 11:13:20;;;;;;;48.13;27.87;;;;;;;5.63;86.16;97371.38;252784;1150;23006;-79
2020/12/30 11:18:25;;;;;;;69.00;40.17;;;;;;;5.47;85.79;97381.47;251031;1151;23793;-84
2020/12/30 11:23:31;;;;;;;72.60;40.57;;;;;;;5.34;85.76;97373.44;252582;1151;22988;-83
2020/12/30 11:28:34;;;;;;;65.73;37.47;;;;;;;5.29;86.60;97367.12;251736;1151;22998;-75
2020/12/30 11:33:43;;;;;;;64.30;36.53;;;;;;;5.29;86.09;97372.43;252432;1153;22962;-78
2020/12/30 11:38:45;;;;;;;60.67;33.20;;;;;;;5.32;87.13;97368.41;251703;1151;23071;-80
2020/12/30 11:43:47;;;;;;;65.17;36.33;;;;;;;5.37;87.28;97372.86;251141;1151;22952;-77
2020/12/30 11:48:49;;;;;;;46.67;27.03;;;;;;;5.45;86.60;97385.48;251235;1151;22940;-74
2020/12/30 11:53:52;;;;;;;48.07;28.10;;;;;;;5.45;86.73;97382.83;252202;1151;22908;-76
2020/12/30 11:58:54;;;;;;;39.83;21.73;;;;;;;5.46;86.78;97382.54;252085;1151;22971;-74
2020/12/30 12:03:57;;;;;;;32.87;18.47;;;;;;;5.40;86.16;97389.02;250872;1151;23674;-77
2020/12/30 12:08:59;;;;;;;30.40;16.40;;;;;;;5.40;86.55;97394.33;251233;1150;22958;-77
2020/12/30 12:14:06;;;;;;;21.83;11.77;;;;;;;5.38;86.27;97395.69;253183;1150;22932;-77
2020/12/30 12:19:14;;;;;;;18.63;10.27;;;;;;;5.27;85.98;97395.03;253272;1151;24233;-77
2020/12/30 12:24:18;;;;;;;14.30;7.95;;;;;;;5.14;85.94;97392.02;252935;1150;23047;-77
2020/12/30 12:29:36;;;;;;;13.43;6.80;;;;;;;5.10;85.86;97398.19;252149;1150;22963;-78
2020/12/30 12:34:44;;;;;;;13.57;8.50;;;;;;;5.13;86.62;97400.27;252701;1150;23112;-76
2020/12/30 12:39:49;;;;;;;14.40;7.90;;;;;;;5.18;86.18;97397.55;252029;1150;22931;-76
2020/12/30 12:45:02;;;;;;;22.03;11.17;;;;;;;5.30;87.59;97403.23;253310;1151;24153;-76
2020/12/30 12:50:05;;;;;;;23.40;12.97;;;;;;;5.46;87.12;97401.13;252849;1151;27715;-74
2020/12/30 12:55:08;;;;;;;19.97;11.83;;;;;;;5.59;87.30;97404.14;250773;1151;22963;-77
2020/12/30 13:00:11;;;;;;;21.03;11.63;;;;;;;5.68;87.11;97409.58;251060;1150;23347;-73
2020/12/30 13:05:13;;;;;;;18.97;11.63;;;;;;;5.72;86.79;97416.70;251821;1151;23871;-74
2020/12/30 13:10:15;;;;;;;22.00;12.40;;;;;;;5.74;86.94;97421.73;251497;1151;23058;-78
2020/12/30 13:15:17;;;;;;;20.13;12.33;;;;;;;5.76;87.36;97416.89;250898;1150;23076;-75
2020/12/30 13:20:20;;;;;;;24.90;14.63;;;;;;;5.79;86.69;97421.62;250609;1150;23077;-78
2020/12/30 13:25:22;;;;;;;22.13;13.10;;;;;;;5.72;87.03;97419.36;250741;1150;22903;-76
2020/12/30 13:30:24;;;;;;;23.33;13.87;;;;;;;5.65;86.68;97421.57;253951;1150;24496;-75
2020/12/30 13:35:26;;;;;;;22.53;13.50;;;;;;;5.68;87.27;97420.20;250329;1150;22922;-73
2020/12/30 13:40:28;;;;;;;23.65;13.80;;;;;;;5.70;85.98;97428.70;250331;1150;22998;-78
2020/12/30 13:45:31;;;;;;;26.90;13.80;;;;;;;5.56;85.89;97424.09;250141;1150;22978;-75
2020/12/30 13:50:33;;;;;;;23.63;15.00;;;;;;;5.39;85.73;97423.83;250793;1150;22919;-76
2020/12/30 13:55:35;;;;;;;31.80;17.80;;;;;;;5.28;86.20;97415.20;250696;1150;22971;-74
2020/12/30 14:00:37;;;;;;;32.97;18.60;;;;;;;5.30;87.03;97418.35;250540;1150;23098;-74
2020/12/30 14:05:40;;;;;;;36.33;19.40;;;;;;;5.33;86.46;97416.99;252127;1150;26392;-77
2020/12/30 14:10:42;;;;;;;44.40;23.15;;;;;;;5.36;86.50;97429.69;250555;1150;22953;-71
2020/12/30 14:15:44;;;;;;;49.33;25.43;;;;;;;5.31;86.52;97415.41;249908;1151;22944;-77
2020/12/30 14:20:48;;;;;;;45.60;23.80;;;;;;;5.33;86.61;97427.62;250424;1151;22946;-77
2020/12/30 14:25:51;;;;;;;60.05;32.10;;;;;;;5.25;86.04;97429.84;250365;1150;23446;-76
2020/12/30 14:30:53;;;;;;;61.60;34.40;;;;;;;5.21;87.10;97426.17;250474;1150;23069;-75
2020/12/30 14:35:55;;;;;;;52.17;28.23;;;;;;;5.20;86.57;97440.52;253696;1150;22957;-78
2020/12/30 14:40:57;;;;;;;48.07;25.73;;;;;;;5.17;87.00;97441.09;250648;1150;28620;-77
2020/12/30 14:46:02;;;;;;;27.65;15.05;;;;;;;5.21;87.08;97438.67;250793;1149;22975;-77
2020/12/30 14:51:04;;;;;;;30.77;15.93;;;;;;;5.22;86.84;97449.00;250501;1150;22915;-77
2020/12/30 14:56:11;;;;;;;22.20;12.35;;;;;;;5.19;86.62;97452.23;249940;1150;22950;-75
2020/12/30 15:01:21;;;;;;;32.97;17.13;;;;;;;5.11;86.47;97444.91;250011;1150;23278;-77
2020/12/30 15:06:24;;;;;;;38.50;18.82;;;;;;;5.05;86.45;97446.02;250035;1151;22945;-80
2020/12/30 15:11:26;;;;;;;35.77;16.40;;;;;;;4.97;86.40;97450.11;252529;1150;23724;-79
2020/12/30 15:16:28;;;;;;;45.35;18.50;;;;;;;4.91;86.06;97470.61;250319;1150;22967;-76
2020/12/30 15:21:31;;;;;;;63.73;26.77;;;;;;;4.88;86.52;97492.41;249954;1150;22963;-78
2020/12/30 15:26:32;;;;;;;42.10;21.20;;;;;;;4.77;86.35;97480.30;250083;1150;25874;-78
2020/12/30 15:31:35;;;;;;;42.75;21.85;;;;;;;4.70;86.29;97488.62;249711;1150;23449;-79
2020/12/30 15:36:37;;;;;;;37.47;21.07;;;;;;;4.61;86.31;97501.68;250126;1150;23041;-79
2020/12/30 15:41:39;;;;;;;37.87;20.73;;;;;;;4.57;86.21;97510.48;249404;1151;22984;-78
2020/12/30 15:46:41;;;;;;;43.80;23.45;;;;;;;4.48;86.58;97523.57;249949;1150;22964;-78
2020/12/30 15:51:50;;;;;;;64.83;34.03;;;;;;;4.52;87.15;97524.59;250391;1150;23073;-77
2020/12/30 15:56:52;;;;;;;106.33;53.93;;;;;;;4.61;87.21;97525.55;250225;1150;23406;-79
2020/12/30 16:01:54;;;;;;;117.73;57.43;;;;;;;4.66;86.96;97526.58;249515;1151;23002;-78
2020/12/30 16:06:56;;;;;;;113.00;57.00;;;;;;;4.70;87.36;97535.56;249995;1150;22967;-77
2020/12/30 16:11:59;;;;;;;106.17;55.73;;;;;;;4.76;87.36;97542.42;249714;1151;22970;-78
2020/12/30 16:17:02;;;;;;;82.00;46.57;;;;;;;4.78;87.51;97538.42;249419;1151;26501;-82
2020/12/30 16:22:04;;;;;;;73.50;43.00;;;;;;;4.77;87.45;97549.28;249572;1151;22964;-78
2020/12/30 16:27:06;;;;;;;71.10;41.03;;;;;;;4.69;87.11;97549.92;250339;1151;22942;-79
2020/12/30 16:32:09;;;;;;;65.93;37.90;;;;;;;4.62;86.57;97548.36;250083;1151;22939;-79
2020/12/30 16:37:12;;;;;;;63.30;34.33;;;;;;;4.57;86.50;97558.23;249867;1151;23031;-79
2020/12/30 16:42:15;;;;;;;75.90;41.17;;;;;;;4.51;86.98;97559.36;250120;1150;22932;-78
2020/12/30 16:47:16;;;;;;;138.60;78.90;;;;;;;4.52;87.97;97574.17;250229;1151;23053;-78
2020/12/30 16:52:19;;;;;;;75.63;42.23;;;;;;;4.51;87.41;97576.05;250479;1151;22950;-77
2020/12/30 16:57:21;;;;;;;92.90;46.90;;;;;;;4.44;86.96;97576.36;249991;1151;23573;-79
2020/12/30 17:02:25;;;;;;;73.77;38.27;;;;;;;4.37;87.01;97583.06;250242;1151;22922;-81
2020/12/30 17:07:27;;;;;;;98.87;48.33;;;;;;;4.33;87.34;97584.68;249949;1150;22890;-79
2020/12/30 17:12:29;;;;;;;109.00;55.97;;;;;;;4.37;88.18;97578.54;250458;1156;22968;-76
2020/12/30 17:17:32;;;;;;;79.93;40.90;;;;;;;4.41;87.65;97584.87;250204;1151;22947;-79
2020/12/30 17:22:34;;;;;;;93.00;47.33;;;;;;;4.36;87.46;97579.60;250320;1151;22986;-79
2020/12/30 17:27:37;;;;;;;64.97;34.77;;;;;;;4.36;87.68;97581.47;250343;1150;22946;-78
2020/12/30 17:32:39;;;;;;;76.15;39.10;;;;;;;4.24;87.04;97595.87;250166;1156;22938;-79
2020/12/30 17:37:41;;;;;;;82.00;43.85;;;;;;;4.16;87.67;97598.32;250243;1150;22929;-79
2020/12/30 17:42:46;;;;;;;72.70;38.07;;;;;;;4.10;87.04;97602.86;249952;1151;22899;-80
2020/12/30 17:47:48;;;;;;;64.07;30.43;;;;;;;3.92;86.82;97604.28;250421;1151;22964;-78
2020/12/30 17:52:50;;;;;;;61.85;30.80;;;;;;;3.75;86.83;97601.98;250037;1151;22978;-79
2020/12/30 17:57:52;;;;;;;60.23;31.57;;;;;;;3.72;87.44;97608.62;251303;1150;24442;-78
2020/12/30 18:02:55;;;;;;;45.05;25.00;;;;;;;3.68;87.00;97622.66;250220;1156;22904;-80
2020/12/30 18:07:57;;;;;;;54.73;28.57;;;;;;;3.58;87.39;97629.59;250064;1150;22947;-77
2020/12/30 18:12:59;;;;;;;52.50;26.97;;;;;;;3.53;87.48;97628.82;250454;1156;22939;-79
2020/12/30 18:18:02;;;;;;;47.60;23.43;;;;;;;3.48;87.53;97642.84;250170;1151;22964;-78
2020/12/30 18:23:04;;;;;;;39.40;20.57;;;;;;;3.35;87.13;97641.56;250251;1156;23148;-78
2020/12/30 18:28:06;;;;;;;52.65;26.20;;;;;;;3.28;87.77;97650.86;250018;1151;22939;-77
2020/12/30 18:33:08;;;;;;;49.33;25.73;;;;;;;3.11;87.08;97661.75;250224;1155;22941;-80
2020/12/30 18:38:12;;;;;;;63.47;31.67;;;;;;;2.90;87.13;97659.89;250335;1151;23063;-79
2020/12/30 18:43:15;;;;;;;60.17;30.07;;;;;;;2.82;87.51;97660.41;250311;1151;22961;-78
2020/12/30 18:48:18;;;;;;;58.33;28.20;;;;;;;2.72;87.61;97660.42;250116;1151;23325;-79
2020/12/30 18:53:20;;;;;;;53.53;27.53;;;;;;;2.53;87.57;97671.53;250306;1151;22900;-79
2020/12/30 18:58:22;;;;;;;60.73;31.10;;;;;;;2.37;87.06;97672.55;250413;1151;26570;-78
2020/12/30 19:03:25;;;;;;;59.57;30.77;;;;;;;2.23;86.87;97672.25;249834;1158;22950;-79
2020/12/30 19:08:27;;;;;;;54.40;29.07;;;;;;;2.13;87.40;97685.45;250472;1151;24345;-78
2020/12/30 19:13:29;;;;;;;45.30;24.05;;;;;;;1.97;87.29;97679.30;250116;1151;22974;-79
2020/12/30 19:18:31;;;;;;;53.50;25.50;;;;;;;1.73;86.46;97685.02;250425;1151;23191;-80
2020/12/30 19:23:34;;;;;;;50.20;27.00;;;;;;;1.50;86.79;97683.59;250484;1156;22935;-80
2020/12/30 19:28:40;;;;;;;51.90;26.70;;;;;;;1.31;86.70;97681.35;250353;1151;23103;-79
2020/12/30 19:33:42;;;;;;;57.60;27.47;;;;;;;1.21;87.46;97691.06;250133;1153;23047;-81
2020/12/30 19:38:45;;;;;;;53.50;28.00;;;;;;;1.22;87.61;97684.72;250560;1151;22939;-79
2020/12/30 19:43:47;;;;;;;44.20;24.47;;;;;;;1.17;87.43;97686.27;251040;1151;23007;-78
2020/12/30 19:48:50;;;;;;;51.23;28.23;;;;;;;1.04;87.57;97697.28;250279;1151;26021;-79
2020/12/30 19:53:53;;;;;;;53.10;28.53;;;;;;;0.93;87.62;97701.67;250438;1151;23141;-79
2020/12/30 19:58:55;;;;;;;52.85;27.10;;;;;;;0.85;87.93;97704.77;250342;1151;23189;-79
2020/12/30 20:03:57;;;;;;;55.65;29.80;;;;;;;0.82;88.21;97713.97;249940;1151;22942;-79
2020/12/30 20:09:05;;;;;;;59.67;30.03;;;;;;;0.82;88.03;97702.63;250400;1158;23259;-77
2020/12/30 20:14:07;;;;;;;39.70;21.85;;;;;;;0.80;88.20;97713.44;250343;1150;23029;-77
2020/12/30 20:19:12;;;;;;;59.50;29.70;;;;;;;0.65;88.24;97716.72;250247;1151;23134;-78
2020/12/30 20:24:14;;;;;;;55.77;27.97;;;;;;;0.57;87.43;97716.38;249939;1154;22987;-78
2020/12/30 20:29:17;;;;;;;54.33;27.70;;;;;;;0.48;88.40;97726.58;250222;1151;22975;-79
2020/12/30 20:34:19;;;;;;;69.13;35.90;;;;;;;0.44;88.53;97736.02;250267;1150;22961;-77
2020/12/30 20:39:20;;;;;;;84.27;44.90;;;;;;;0.38;87.90;97756.25;250731;1155;22942;-79
2020/12/30 20:44:22;;;;;;;48.83;26.13;;;;;;;0.37;88.62;97759.92;252196;1151;23024;-79
2020/12/30 20:49:26;;;;;;;43.50;23.47;;;;;;;0.31;87.65;97764.34;250302;1156;22967;-80
2020/12/30 20:54:29;;;;;;;52.23;25.57;;;;;;;0.25;88.64;97757.43;251549;1151;23050;-79
2020/12/30 20:59:32;;;;;;;52.50;25.35;;;;;;;0.27;88.74;97759.81;252077;1154;22973;-79
2020/12/30 21:04:35;;;;;;;85.77;40.13;;;;;;;0.29;89.18;97758.50;250440;1150;23341;-79
2020/12/30 21:09:38;;;;;;;134.03;59.87;;;;;;;0.25;88.13;97772.42;250594;1156;22945;-79
2020/12/30 21:14:43;;;;;;;148.70;64.87;;;;;;;0.07;87.82;97769.06;250337;1153;22953;-79
2020/12/30 21:19:45;;;;;;;164.40;68.53;;;;;;;-0.07;87.79;97767.81;250418;1151;22965;-79
2020/12/30 21:24:47;;;;;;;207.43;89.20;;;;;;;-0.19;87.62;97770.56;251113;1151;22953;-79
2020/12/30 21:29:50;;;;;;;189.53;86.23;;;;;;;-0.27;87.55;97769.13;250497;1151;22939;-79
2020/12/30 21:34:52;;;;;;;172.10;75.80;;;;;;;-0.32;87.88;97774.34;251346;1151;23003;-79
2020/12/30 21:39:55;;;;;;;179.73;80.27;;;;;;;-0.37;87.84;97774.27;251558;1150;23368;-80
2020/12/30 21:44:59;;;;;;;168.70;71.60;;;;;;;-0.43;88.63;97785.77;250567;1151;22956;-79
2020/12/30 21:50:01;;;;;;;153.63;72.57;;;;;;;-0.48;88.07;97796.98;250318;1151;23057;-78
2020/12/30 21:55:04;;;;;;;97.25;46.30;;;;;;;-0.53;87.91;97802.19;249818;1151;22974;-79
2020/12/30 22:00:08;;;;;;;144.27;61.13;;;;;;;-0.53;88.72;97799.56;250710;1151;23135;-78
2020/12/30 22:05:10;;;;;;;123.83;54.73;;;;;;;-0.53;88.38;97808.23;250381;1151;22974;-77
2020/12/30 22:10:13;;;;;;;136.75;56.75;;;;;;;-0.57;87.50;97808.97;250427;1153;22967;-80
2020/12/30 22:15:15;;;;;;;103.70;44.10;;;;;;;-0.60;87.72;97812.05;250274;1153;23148;-79
2020/12/30 22:20:17;;;;;;;115.27;49.53;;;;;;;-0.66;87.62;97805.92;250296;1151;23107;-80
2020/12/30 22:25:19;;;;;;;236.97;105.83;;;;;;;-0.63;87.66;97807.27;250547;1156;22954;-79
2020/12/30 22:30:21;;;;;;;101.43;42.67;;;;;;;-0.64;88.46;97806.48;250272;1152;22982;-80
2020/12/30 22:35:23;;;;;;;119.63;48.87;;;;;;;-0.65;88.11;97825.93;250255;1151;26424;-80
2020/12/30 22:40:29;;;;;;;120.65;51.00;;;;;;;-0.65;88.54;97831.19;250615;1151;22942;-81
2020/12/30 22:45:31;;;;;;;119.13;51.13;;;;;;;-0.59;88.96;97832.07;250015;1151;22937;-80
2020/12/30 22:50:33;;;;;;;140.13;59.47;;;;;;;-0.48;89.19;97831.19;250711;1152;22983;-80
2020/12/30 22:55:35;;;;;;;123.45;54.50;;;;;;;-0.38;88.04;97841.08;250843;1151;22955;-77
2020/12/30 23:00:37;;;;;;;141.27;60.97;;;;;;;-0.28;88.47;97848.33;250578;1150;22998;-80
2020/12/30 23:05:39;;;;;;;157.53;63.40;;;;;;;-0.19;88.67;97850.32;250467;1151;22771;-80
2020/12/30 23:10:42;;;;;;;174.17;72.93;;;;;;;-0.04;88.45;97848.97;250712;1155;22998;-80
2020/12/30 23:15:45;;;;;;;182.70;76.53;;;;;;;0.11;89.85;97846.55;250602;1151;23034;-80
2020/12/30 23:20:51;;;;;;;137.75;60.75;;;;;;;0.22;88.61;97849.30;250554;1156;22936;-80